Ningbo Seal — VRJD3 — position and weather

sailwx.info

Track history (hours):
 
Tides and Currents Weather Stations Pressure Air Temp Water Temp Dewpoint Dewpoint Depression Visibility Wind Speed Wind Dir Waves Ship Positions

Ningbo Seal

Last reported at 2017-Mar-29 21:33 UTC. Time now 2017-Jun-26 11:55 UTC.
Position S 02°05' W 044°07'.
Warning: this ship's position is months out of date.

Length 224 m; draft 14.6 m.

Type: Cargo ship. MMSI: 477628100.

Date/timePositionNaut miles runAvg speedWind from/ knotsBaromVisibWave heightAir tempDewpointWater temp
2017-Mar-29 21:33S 02°05' W 044°07'9 8.8
2017-Mar-29 20:33S 02°12' W 044°11'8 7.8
2017-Mar-29 19:34S 02°19' W 044°16'9 8.9
2017-Mar-29 18:33S 02°26' W 044°21'8 7.9
2017-Mar-29 17:34S 02°34' W 044°23'0 0.0
2017-Mar-29 15:31S 02°34' W 044°23'0 0.0
2017-Mar-29 14:31S 02°34' W 044°23'0 0.0
2017-Mar-29 13:31S 02°34' W 044°23'0 0.0
2017-Mar-29 12:31S 02°34' W 044°23'0 0.0
2017-Mar-29 11:31S 02°34' W 044°23'0 0.0
2017-Mar-29 10:32S 02°34' W 044°23'0 0.0
2017-Mar-29 09:29S 02°34' W 044°23'0 0.0
2017-Mar-29 08:31S 02°34' W 044°23'0 0.0
2017-Mar-29 07:31S 02°34' W 044°23'0 0.0
2017-Mar-29 06:31S 02°34' W 044°23'0 0.0
2017-Mar-29 05:31S 02°34' W 044°23'0 0.0
2017-Mar-29 04:28S 02°34' W 044°23'0 0.0
2017-Mar-29 03:31S 02°34' W 044°23'0 0.0
2017-Mar-29 02:31S 02°34' W 044°23'0 0.0
2017-Mar-29 01:31S 02°34' W 044°23'0 0.0
2017-Mar-29 00:31S 02°34' W 044°23'0 0.0
2017-Mar-28 23:31S 02°34' W 044°23'0 0.0
2017-Mar-28 22:31S 02°34' W 044°23'0 0.0
2017-Mar-28 21:31S 02°34' W 044°23'0 0.0
2017-Mar-28 20:31S 02°34' W 044°23'0 0.0
2017-Mar-28 19:31S 02°34' W 044°23'0 0.0
2017-Mar-28 18:31S 02°34' W 044°23'0 0.0
2017-Mar-28 17:33S 02°34' W 044°23'4 3.8
2017-Mar-28 16:33S 02°30' W 044°23'7 6.8
2017-Mar-28 15:33S 02°24' W 044°19'5 4.9
2017-Mar-28 14:33S 02°23' W 044°14'1 0.9
2017-Mar-28 13:31S 02°23' W 044°13'0 0.0
2017-Mar-28 12:31S 02°23' W 044°13'0 0.2
2017-Mar-28 11:31S 02°24' W 044°13'0 0.1
2017-Mar-28 10:31S 02°24' W 044°13'0 0.0
2017-Mar-28 09:31S 02°24' W 044°13'0 0.0
2017-Mar-28 08:31S 02°24' W 044°13'0 0.0
2017-Mar-28 07:31S 02°24' W 044°13'0 0.0
2017-Mar-28 06:31S 02°24' W 044°13'0 0.0
2017-Mar-28 05:31S 02°24' W 044°13'0 0.2
2017-Mar-28 04:31S 02°23' W 044°13'0 0.1
2017-Mar-28 03:31S 02°23' W 044°13'0 0.0
2017-Mar-28 02:31S 02°23' W 044°13'0 0.0
2017-Mar-28 01:31S 02°23' W 044°13'0 0.0
2017-Mar-28 00:31S 02°23' W 044°13'0 0.2
2017-Mar-27 23:31S 02°23' W 044°13'0 0.2
2017-Mar-27 22:31S 02°24' W 044°13'0 0.0
2017-Mar-27 21:31S 02°24' W 044°13'0 0.0
2017-Mar-27 20:31S 02°24' W 044°13'0 0.0
2017-Mar-27 19:31S 02°24' W 044°13'0 0.0
2017-Mar-27 18:31S 02°24' W 044°13'0 0.0
2017-Mar-27 17:31S 02°24' W 044°13'0 0.0
2017-Mar-27 16:31S 02°24' W 044°13'0 0.2
2017-Mar-27 15:31S 02°23' W 044°13'0 0.0
2017-Mar-27 14:31S 02°23' W 044°13'0 0.0
2017-Mar-27 13:31S 02°23' W 044°13'0 0.0
2017-Mar-27 12:31S 02°23' W 044°13'0 0.1
2017-Mar-27 11:31S 02°23' W 044°13'0 0.2
2017-Mar-27 10:31S 02°24' W 044°13'0 0.0
2017-Mar-27 09:31S 02°24' W 044°13'0 0.0
2017-Mar-27 08:31S 02°24' W 044°13'0 0.0
2017-Mar-27 07:31S 02°24' W 044°13'0 0.0
2017-Mar-27 06:31S 02°24' W 044°13'0 0.0
2017-Mar-27 05:31S 02°24' W 044°13'0 0.0
2017-Mar-27 04:31S 02°24' W 044°13'0 0.2
2017-Mar-27 03:31S 02°23' W 044°13'0 0.1
2017-Mar-27 02:31S 02°23' W 044°13'0 0.0
2017-Mar-27 01:31S 02°23' W 044°13'0 0.0
2017-Mar-27 00:31S 02°23' W 044°13'0 0.0
2017-Mar-26 23:31S 02°23' W 044°13'0 0.2
2017-Mar-26 22:06S 02°24' W 044°13'0 0.1
2017-Mar-26 21:31S 02°24' W 044°13'0 0.1
2017-Mar-26 20:31S 02°24' W 044°13'0 0.0
2017-Mar-26 19:31S 02°24' W 044°13'0 0.0
2017-Mar-26 18:31S 02°24' W 044°13'0 0.0
2017-Mar-26 17:31S 02°24' W 044°13'0 0.0
2017-Mar-26 16:31S 02°24' W 044°13'0 0.1
2017-Mar-26 15:31S 02°24' W 044°13'0 0.2
2017-Mar-26 14:31S 02°23' W 044°13'0 0.0
2017-Mar-26 13:31S 02°23' W 044°13'0 0.0
2017-Mar-26 12:31S 02°23' W 044°13'0 0.0
2017-Mar-26 11:31S 02°23' W 044°13'0 0.2
2017-Mar-26 10:31S 02°24' W 044°13'0 0.1
2017-Mar-26 09:31S 02°24' W 044°13'0 0.1
2017-Mar-26 08:31S 02°24' W 044°13'0 0.0
2017-Mar-26 07:33S 02°24' W 044°13'1 1.0
2017-Mar-26 06:34S 02°23' W 044°14'5 5.0
2017-Mar-26 05:34S 02°19' W 044°16'9 9.2
2017-Mar-26 04:34S 02°11' W 044°11'1312.7
2017-Mar-26 03:34S 02°00' W 044°05'  
Track history (hours):
 
Tides and Currents Weather Stations Pressure Air Temp Water Temp Dewpoint Dewpoint Depression Visibility Wind Speed Wind Dir Waves Ship Positions

Ningbo Seal

Last reported at 2017-Mar-29 21:33 UTC. Time now 2017-Jun-26 11:55 UTC.
Position S 02°05' W 044°07'.
Warning: this ship's position is months out of date.

Length 224 m; draft 14.6 m.

Type: Cargo ship. MMSI: 477628100.

Date/timePositionNaut miles runAvg speedWind from/ knotsBaromVisibWave heightAir tempDewpointWater temp
2017-Mar-29 21:33S 02°05' W 044°07'9 8.8
2017-Mar-29 20:33S 02°12' W 044°11'8 7.8
2017-Mar-29 19:34S 02°19' W 044°16'9 8.9
2017-Mar-29 18:33S 02°26' W 044°21'8 7.9
2017-Mar-29 17:34S 02°34' W 044°23'0 0.0
2017-Mar-29 15:31S 02°34' W 044°23'0 0.0
2017-Mar-29 14:31S 02°34' W 044°23'0 0.0
2017-Mar-29 13:31S 02°34' W 044°23'0 0.0
2017-Mar-29 12:31S 02°34' W 044°23'0 0.0
2017-Mar-29 11:31S 02°34' W 044°23'0 0.0
2017-Mar-29 10:32S 02°34' W 044°23'0 0.0
2017-Mar-29 09:29S 02°34' W 044°23'0 0.0
2017-Mar-29 08:31S 02°34' W 044°23'0 0.0
2017-Mar-29 07:31S 02°34' W 044°23'0 0.0
2017-Mar-29 06:31S 02°34' W 044°23'0 0.0
2017-Mar-29 05:31S 02°34' W 044°23'0 0.0
2017-Mar-29 04:28S 02°34' W 044°23'0 0.0
2017-Mar-29 03:31S 02°34' W 044°23'0 0.0
2017-Mar-29 02:31S 02°34' W 044°23'0 0.0
2017-Mar-29 01:31S 02°34' W 044°23'0 0.0
2017-Mar-29 00:31S 02°34' W 044°23'0 0.0
2017-Mar-28 23:31S 02°34' W 044°23'0 0.0
2017-Mar-28 22:31S 02°34' W 044°23'0 0.0
2017-Mar-28 21:31S 02°34' W 044°23'0 0.0
2017-Mar-28 20:31S 02°34' W 044°23'0 0.0
2017-Mar-28 19:31S 02°34' W 044°23'0 0.0
2017-Mar-28 18:31S 02°34' W 044°23'0 0.0
2017-Mar-28 17:33S 02°34' W 044°23'4 3.8
2017-Mar-28 16:33S 02°30' W 044°23'7 6.8
2017-Mar-28 15:33S 02°24' W 044°19'5 4.9
2017-Mar-28 14:33S 02°23' W 044°14'1 0.9
2017-Mar-28 13:31S 02°23' W 044°13'0 0.0
2017-Mar-28 12:31S 02°23' W 044°13'0 0.2
2017-Mar-28 11:31S 02°24' W 044°13'0 0.1
2017-Mar-28 10:31S 02°24' W 044°13'0 0.0
2017-Mar-28 09:31S 02°24' W 044°13'0 0.0
2017-Mar-28 08:31S 02°24' W 044°13'0 0.0
2017-Mar-28 07:31S 02°24' W 044°13'0 0.0
2017-Mar-28 06:31S 02°24' W 044°13'0 0.0
2017-Mar-28 05:31S 02°24' W 044°13'0 0.2
2017-Mar-28 04:31S 02°23' W 044°13'0 0.1
2017-Mar-28 03:31S 02°23' W 044°13'0 0.0
2017-Mar-28 02:31S 02°23' W 044°13'0 0.0
2017-Mar-28 01:31S 02°23' W 044°13'0 0.0
2017-Mar-28 00:31S 02°23' W 044°13'0 0.2
2017-Mar-27 23:31S 02°23' W 044°13'0 0.2
2017-Mar-27 22:31S 02°24' W 044°13'0 0.0
2017-Mar-27 21:31S 02°24' W 044°13'0 0.0
2017-Mar-27 20:31S 02°24' W 044°13'0 0.0
2017-Mar-27 19:31S 02°24' W 044°13'0 0.0
2017-Mar-27 18:31S 02°24' W 044°13'0 0.0
2017-Mar-27 17:31S 02°24' W 044°13'0 0.0
2017-Mar-27 16:31S 02°24' W 044°13'0 0.2
2017-Mar-27 15:31S 02°23' W 044°13'0 0.0
2017-Mar-27 14:31S 02°23' W 044°13'0 0.0
2017-Mar-27 13:31S 02°23' W 044°13'0 0.0
2017-Mar-27 12:31S 02°23' W 044°13'0 0.1
2017-Mar-27 11:31S 02°23' W 044°13'0 0.2
2017-Mar-27 10:31S 02°24' W 044°13'0 0.0
2017-Mar-27 09:31S 02°24' W 044°13'0 0.0
2017-Mar-27 08:31S 02°24' W 044°13'0 0.0
2017-Mar-27 07:31S 02°24' W 044°13'0 0.0
2017-Mar-27 06:31S 02°24' W 044°13'0 0.0
2017-Mar-27 05:31S 02°24' W 044°13'0 0.0
2017-Mar-27 04:31S 02°24' W 044°13'0 0.2
2017-Mar-27 03:31S 02°23' W 044°13'0 0.1
2017-Mar-27 02:31S 02°23' W 044°13'0 0.0
2017-Mar-27 01:31S 02°23' W 044°13'0 0.0
2017-Mar-27 00:31S 02°23' W 044°13'0 0.0
2017-Mar-26 23:31S 02°23' W 044°13'0 0.2
2017-Mar-26 22:06S 02°24' W 044°13'0 0.1
2017-Mar-26 21:31S 02°24' W 044°13'0 0.1
2017-Mar-26 20:31S 02°24' W 044°13'0 0.0
2017-Mar-26 19:31S 02°24' W 044°13'0 0.0
2017-Mar-26 18:31S 02°24' W 044°13'0 0.0
2017-Mar-26 17:31S 02°24' W 044°13'0 0.0
2017-Mar-26 16:31S 02°24' W 044°13'0 0.1
2017-Mar-26 15:31S 02°24' W 044°13'0 0.2
2017-Mar-26 14:31S 02°23' W 044°13'0 0.0
2017-Mar-26 13:31S 02°23' W 044°13'0 0.0
2017-Mar-26 12:31S 02°23' W 044°13'0 0.0
2017-Mar-26 11:31S 02°23' W 044°13'0 0.2
2017-Mar-26 10:31S 02°24' W 044°13'0 0.1
2017-Mar-26 09:31S 02°24' W 044°13'0 0.1
2017-Mar-26 08:31S 02°24' W 044°13'0 0.0
2017-Mar-26 07:33S 02°24' W 044°13'1 1.0
2017-Mar-26 06:34S 02°23' W 044°14'5 5.0
2017-Mar-26 05:34S 02°19' W 044°16'9 9.2
2017-Mar-26 04:34S 02°11' W 044°11'1312.7
2017-Mar-26 03:34S 02°00' W 044°05'  

Dump ship's entire track history